Indigo Sun — D5OF6 — position and weather

sailwx.info

Track history (hours):
 
Tides and Currents Weather Stations Pressure Air Temp Water Temp Dewpoint Dewpoint Depression Visibility Wind Speed Wind Dir Waves Ship Positions

Indigo Sun

Last reported at 2018-Feb-22 11:59 UTC. Time now 2018-Feb-25 12:12 UTC.
Position N 44°21' E 037°07'.

Length 249 m; draft 13.3 m.

Type: Ship (hazmat cat C). MMSI: 636018113.

Date/timePositionNaut miles runAvg speedWind from/ knotsBaromVisibWave heightAir tempDewpointWater temp
2018-Feb-22 11:59N 44°21' E 037°07'612.7
2018-Feb-22 11:29N 44°24' E 037°14'612.5
2018-Feb-22 10:59N 44°27' E 037°22'612.7
2018-Feb-22 10:30N 44°29' E 037°30'612.7
2018-Feb-22 10:00N 44°31' E 037°38'510.4
2018-Feb-22 09:30N 44°35' E 037°43'1 1.9
2018-Feb-22 09:00N 44°36' E 037°43'0 0.2
2018-Feb-22 08:30N 44°36' E 037°43'0 0.3
2018-Feb-22 08:00N 44°36' E 037°44'0 0.2
2018-Feb-22 07:30N 44°36' E 037°44'0 0.7
2018-Feb-22 07:00N 44°36' E 037°44'1 1.8
2018-Feb-22 06:30N 44°35' E 037°43'0 0.4
2018-Feb-22 06:00N 44°36' E 037°43'0 0.5
2018-Feb-22 05:30N 44°36' E 037°43'0 0.5
2018-Feb-22 05:00N 44°36' E 037°43'0 0.5
2018-Feb-22 04:30N 44°36' E 037°43'0 0.4
2018-Feb-22 04:00N 44°36' E 037°43'0 0.2
2018-Feb-22 03:30N 44°36' E 037°43'1 2.1
2018-Feb-22 03:00N 44°36' E 037°43'2 4.6
2018-Feb-22 02:30N 44°35' E 037°40'2 3.5
2018-Feb-22 02:00N 44°36' E 037°38'2 3.0
2018-Feb-22 01:30N 44°38' E 037°38'0 0.0
2018-Feb-21 07:56N 44°38' E 037°38'1 1.5
2018-Feb-21 07:31N 44°37' E 037°37'1 2.1
2018-Feb-21 07:00N 44°36' E 037°37'1 2.1
2018-Feb-21 06:31N 44°35' E 037°38'2 4.4
2018-Feb-21 06:01N 44°33' E 037°36'0 0.9
2018-Feb-21 05:31N 44°34' E 037°37'0 0.1
2018-Feb-21 05:01N 44°34' E 037°37'4 7.9
2018-Feb-21 04:30N 44°31' E 037°33'0 0.9
2018-Feb-21 04:00N 44°31' E 037°33'1 1.2
2018-Feb-21 03:31N 44°31' E 037°34'1 1.2
2018-Feb-21 03:00N 44°32' E 037°35'1 1.2
2018-Feb-21 02:31N 44°32' E 037°35'1 1.2
2018-Feb-21 02:00N 44°32' E 037°36'1 1.2
2018-Feb-21 01:30N 44°33' E 037°37'1 1.2
2018-Feb-21 01:01N 44°33' E 037°37'3 5.2
2018-Feb-21 00:30N 44°32' E 037°34'1 1.7
2018-Feb-21 00:01N 44°31' E 037°33'4 1.4
2018-Feb-20 21:22N 44°34' E 037°37'0 1.1
2018-Feb-20 21:00N 44°34' E 037°37'4 7.6
2018-Feb-20 20:31N 44°31' E 037°34'0 0.8
2018-Feb-20 20:01N 44°31' E 037°33'1 1.5
2018-Feb-20 19:30N 44°31' E 037°34'1 1.5
2018-Feb-20 19:01N 44°32' E 037°35'1 1.6
2018-Feb-20 18:30N 44°32' E 037°35'1 1.5
2018-Feb-20 18:01N 44°33' E 037°36'1 1.3
2018-Feb-20 17:31N 44°33' E 037°37'1 2.0
2018-Feb-20 17:00N 44°33' E 037°35'3 6.0
2018-Feb-20 16:31N 44°31' E 037°33'1 1.2
2018-Feb-20 16:01N 44°31' E 037°33'1 1.2
2018-Feb-20 15:30N 44°32' E 037°34'1 1.3
2018-Feb-20 15:00N 44°32' E 037°35'1 1.4
2018-Feb-20 14:31N 44°32' E 037°35'1 1.3
2018-Feb-20 14:00N 44°33' E 037°36'1 1.2
2018-Feb-20 13:30N 44°33' E 037°37'0 0.7
2018-Feb-20 13:01N 44°34' E 037°37'4 8.0
2018-Feb-20 12:31N 44°30' E 037°34'0 0.8
2018-Feb-20 12:00N 44°31' E 037°34'1 1.5
2018-Feb-20 11:31N 44°31' E 037°34'1 1.3
2018-Feb-20 11:00N 44°32' E 037°35'1 1.4
2018-Feb-20 10:30N 44°32' E 037°35'1 1.4
2018-Feb-20 10:00N 44°33' E 037°36'1 1.3
2018-Feb-20 09:30N 44°33' E 037°37'1 1.3
2018-Feb-20 09:00N 44°33' E 037°37'1 2.8
2018-Feb-20 08:30N 44°33' E 037°36'3 6.1
2018-Feb-20 08:00N 44°30' E 037°33'1 1.2
2018-Feb-20 07:30N 44°31' E 037°34'1 1.2
2018-Feb-20 07:00N 44°31' E 037°34'1 1.3
2018-Feb-20 06:30N 44°32' E 037°35'1 1.4
2018-Feb-20 06:00N 44°32' E 037°35'1 1.4
2018-Feb-20 05:30N 44°33' E 037°36'0 0.1
2018-Feb-20 05:00N 44°33' E 037°36'4 7.3
2018-Feb-20 04:30N 44°29' E 037°34'1 1.3
2018-Feb-20 04:00N 44°30' E 037°34'1 1.2
2018-Feb-20 03:30N 44°31' E 037°35'1 1.2
2018-Feb-20 03:00N 44°31' E 037°35'1 1.2
2018-Feb-20 02:30N 44°31' E 037°36'1 1.2
2018-Feb-20 02:00N 44°32' E 037°36'1 1.1
2018-Feb-20 01:30N 44°32' E 037°37'0 1.0
2018-Feb-20 01:00N 44°33' E 037°37'0 0.8
2018-Feb-20 00:30N 44°33' E 037°37'0 0.6
2018-Feb-20 00:00N 44°33' E 037°37'3 6.6
2018-Feb-19 23:30N 44°30' E 037°35'0 0.9
2018-Feb-19 23:00N 44°30' E 037°35'0 0.5
2018-Feb-19 22:30N 44°30' E 037°35'0 0.4
2018-Feb-19 22:00N 44°30' E 037°35'0 0.4
2018-Feb-19 21:30N 44°30' E 037°35'0 0.4
2018-Feb-19 21:00N 44°31' E 037°35'0 0.4
2018-Feb-19 20:30N 44°31' E 037°35'1936.3
2018-Feb-19 19:59N 44°36' E 038°01'0 0.0
2018-Feb-19 19:30N 44°36' E 038°01'0 0.0
2018-Feb-19 19:01N 44°36' E 038°01'1937.4
2018-Feb-19 18:31N 44°31' E 037°35'0 0.6
2018-Feb-19 18:00N 44°31' E 037°35'0 0.3
2018-Feb-19 17:30N 44°32' E 037°35'0 0.6
2018-Feb-19 17:00N 44°31' E 037°36'0 0.5
2018-Feb-19 16:31N 44°32' E 037°36'0 0.8
2018-Feb-19 16:00N 44°32' E 037°36'0 0.5
2018-Feb-19 15:30N 44°32' E 037°36'0 0.5
2018-Feb-19 15:00N 44°32' E 037°36'0 0.5
2018-Feb-19 14:30N 44°33' E 037°36'0 0.9
2018-Feb-19 14:01N 44°33' E 037°36'4 7.1
2018-Feb-19 13:30N 44°29' E 037°35'0 0.5
2018-Feb-19 13:00N 44°30' E 037°35'0 0.5
2018-Feb-19 12:30N 44°30' E 037°35'0 0.6
2018-Feb-19 12:01N 44°30' E 037°35'1939.0
2018-Feb-19 11:31N 44°36' E 038°01'0 0.0
2018-Feb-19 11:01N 44°36' E 038°01'1938.1
2018-Feb-19 10:31N 44°31' E 037°35'0 0.6
2018-Feb-19 10:00N 44°31' E 037°35'0 0.7
2018-Feb-19 09:30N 44°32' E 037°35'0 0.8
2018-Feb-19 09:00N 44°32' E 037°36'0 0.8
2018-Feb-19 08:31N 44°32' E 037°36'0 0.8
2018-Feb-19 08:00N 44°33' E 037°36'0 0.7
2018-Feb-19 07:30N 44°33' E 037°37'0 0.7
2018-Feb-19 07:00N 44°33' E 037°37'0 0.6
2018-Feb-19 06:30N 44°33' E 037°37'0 0.5
2018-Feb-19 06:01N 44°34' E 037°37'1 2.0
2018-Feb-19 05:31N 44°33' E 037°36'3 5.6
2018-Feb-19 05:00N 44°30' E 037°35'0 1.0
2018-Feb-19 04:31N 44°30' E 037°35'0 0.9
2018-Feb-19 04:01N 44°30' E 037°35'0 0.8
2018-Feb-19 03:31N 44°31' E 037°35'0 0.8
2018-Feb-19 02:59N 44°31' E 037°35'0 0.8
2018-Feb-19 02:30N 44°31' E 037°35'0 0.8
2018-Feb-19 01:59N 44°32' E 037°36'0 0.8
2018-Feb-19 01:30N 44°32' E 037°36'0 0.6
2018-Feb-19 01:01N 44°32' E 037°36'0 0.4
2018-Feb-19 00:30N 44°33' E 037°36'0 0.4
2018-Feb-19 00:01N 44°33' E 037°36'0 0.4
2018-Feb-18 23:31N 44°33' E 037°36'0 0.2
2018-Feb-18 23:01N 44°33' E 037°37'0 0.3
2018-Feb-18 22:31N 44°33' E 037°36'1834.2
2018-Feb-18 21:59N 44°36' E 038°01'0 0.0
2018-Feb-18 21:31N 44°36' E 038°01'0 0.0
2018-Feb-18 21:01N 44°36' E 038°01'2039.7
2018-Feb-18 20:30N 44°31' E 037°33'1 1.4
2018-Feb-18 20:00N 44°31' E 037°34'1 1.6
2018-Feb-18 19:30N 44°32' E 037°35'1 1.5
2018-Feb-18 19:00N 44°32' E 037°36'1 1.4
2018-Feb-18 18:31N 44°33' E 037°37'1 1.3
2018-Feb-18 18:00N 44°33' E 037°37'1 1.8
2018-Feb-18 17:30N 44°33' E 037°38'2 4.5
2018-Feb-18 17:00N 44°30' E 037°39'1 2.3
2018-Feb-18 16:30N 44°30' E 037°37'1 1.0
2018-Feb-18 16:01N 44°30' E 037°37'1 1.0
2018-Feb-18 15:30N 44°31' E 037°37'1 1.0
2018-Feb-18 15:00N 44°31' E 037°37'1 1.0
2018-Feb-18 14:30N 44°32' E 037°37'0 1.0
2018-Feb-18 14:00N 44°32' E 037°37'0 0.8
2018-Feb-18 13:30N 44°33' E 037°37'0 0.7
2018-Feb-18 13:00N 44°33' E 037°37'0 0.6
2018-Feb-18 12:30N 44°33' E 037°36'1 1.3
2018-Feb-18 12:01N 44°33' E 037°36'2 4.7
2018-Feb-18 11:30N 44°31' E 037°34'1 1.1
2018-Feb-18 11:00N 44°30' E 037°34'1 1.5
2018-Feb-18 10:30N 44°31' E 037°35'1 1.5
2018-Feb-18 10:00N 44°31' E 037°35'1 1.6
2018-Feb-18 09:30N 44°32' E 037°36'1 1.7
2018-Feb-18 09:00N 44°33' E 037°36'1 1.5
2018-Feb-18 08:30N 44°34' E 037°37'0 0.6
2018-Feb-18 08:00N 44°33' E 037°37'2 4.2
2018-Feb-18 07:30N 44°32' E 037°35'3 5.1
2018-Feb-18 07:00N 44°29' E 037°34'1 1.5
2018-Feb-18 06:30N 44°30' E 037°35'1 1.6
2018-Feb-18 06:00N 44°31' E 037°35'1 1.8
2018-Feb-18 05:30N 44°31' E 037°36'1 2.1
2018-Feb-18 05:00N 44°32' E 037°37'2 3.2
2018-Feb-18 04:30N 44°31' E 037°39'1 2.4
2018-Feb-18 04:00N 44°30' E 037°40'1 1.6
2018-Feb-18 03:30N 44°31' E 037°39'1 1.7
2018-Feb-18 03:00N 44°32' E 037°39'1 1.7
2018-Feb-18 02:30N 44°32' E 037°38'1 1.3
2018-Feb-18 02:00N 44°33' E 037°37'2 3.5
2018-Feb-18 01:30N 44°32' E 037°36'2 4.9
2018-Feb-18 01:00N 44°29' E 037°35'1 1.0
2018-Feb-18 00:30N 44°29' E 037°36'1 1.5
2018-Feb-18 00:00N 44°30' E 037°36'1 1.7
2018-Feb-17 23:30N 44°31' E 037°36'1 1.6
2018-Feb-17 23:00N 44°32' E 037°37'1 1.7
2018-Feb-17 22:30N 44°32' E 037°37'1 1.9
2018-Feb-17 22:00N 44°32' E 037°39'1632.7
2018-Feb-17 21:30N 44°36' E 038°01'1632.3
2018-Feb-17 21:00N 44°31' E 037°40'1 1.5
2018-Feb-17 20:30N 44°32' E 037°39'0 1.0
2018-Feb-17 20:00N 44°32' E 037°39'0 1.0
2018-Feb-17 19:30N 44°33' E 037°39'1 1.2
2018-Feb-17 19:00N 44°33' E 037°39'2 3.2
2018-Feb-17 18:30N 44°32' E 037°38'3 5.0
2018-Feb-17 18:00N 44°29' E 037°37'1 1.1
2018-Feb-17 17:30N 44°30' E 037°37'0 0.7
2018-Feb-17 17:00N 44°30' E 037°37'0 0.5
2018-Feb-17 16:30N 44°31' E 037°37'0 0.5
2018-Feb-17 16:00N 44°31' E 037°37'0 0.5
2018-Feb-17 15:30N 44°31' E 037°37'0 0.5
2018-Feb-17 15:00N 44°31' E 037°37'0 0.5
2018-Feb-17 14:30N 44°32' E 037°37'0 0.5
2018-Feb-17 14:00N 44°32' E 037°37'0 0.5
2018-Feb-17 13:30N 44°32' E 037°37'0 0.5
2018-Feb-17 13:00N 44°32' E 037°37'0 0.5
2018-Feb-17 12:30N 44°32' E 037°37'0 0.9
2018-Feb-17 12:00N 44°33' E 037°38'1 1.7
2018-Feb-17 11:30N 44°33' E 037°38'2 3.2
2018-Feb-17 11:00N 44°34' E 037°40'3 6.9
2018-Feb-17 10:30N 44°36' E 037°44'0 0.6
2018-Feb-17 10:00N 44°36' E 037°44'0 0.6
2018-Feb-17 09:30N 44°37' E 037°43'0 0.8
2018-Feb-17 09:00N 44°36' E 037°43'3 6.1
2018-Feb-17 08:30N 44°34' E 037°41'3 6.8
2018-Feb-17 08:00N 44°30' E 037°40'1 1.1
2018-Feb-17 07:30N 44°31' E 037°40'1 1.0
2018-Feb-17 07:00N 44°31' E 037°39'1 1.1
2018-Feb-17 06:30N 44°32' E 037°39'0 0.9
2018-Feb-17 06:00N 44°32' E 037°39'0 0.9
2018-Feb-17 05:30N 44°33' E 037°39'0 0.8
2018-Feb-17 05:00N 44°33' E 037°39'1 1.9
2018-Feb-17 04:30N 44°33' E 037°37'3 6.2
2018-Feb-17 04:00N 44°31' E 037°34'0 0.9
2018-Feb-17 03:30N 44°30' E 037°34'0 0.4
2018-Feb-17 03:00N 44°30' E 037°34'0 0.4
2018-Feb-17 02:30N 44°30' E 037°35'0 0.4
2018-Feb-17 02:00N 44°30' E 037°35'0 0.5
2018-Feb-17 01:30N 44°31' E 037°35'0 0.6
2018-Feb-17 01:00N 44°31' E 037°36'0 0.7
2018-Feb-17 00:30N 44°31' E 037°36'0 0.8
2018-Feb-17 00:00N 44°31' E 037°36'0 0.8
2018-Feb-16 23:30N 44°32' E 037°37'0 0.8
2018-Feb-16 23:00N 44°32' E 037°37'0 0.9
2018-Feb-16 22:30N 44°32' E 037°37'1 1.1
2018-Feb-16 22:00N 44°33' E 037°38'1 1.1
2018-Feb-16 21:30N 44°33' E 037°38'3 5.9
2018-Feb-16 21:00N 44°30' E 037°36'1 1.9
2018-Feb-16 20:30N 44°30' E 037°36'1 1.1
2018-Feb-16 20:00N 44°30' E 037°36'1 1.1
2018-Feb-16 19:30N 44°31' E 037°37'1 1.1
2018-Feb-16 19:00N 44°31' E 037°37'1 1.1
2018-Feb-16 18:30N 44°32' E 037°37'1 1.1
2018-Feb-16 18:00N 44°32' E 037°38'1 1.0
2018-Feb-16 17:30N 44°33' E 037°38'1 1.0
2018-Feb-16 17:00N 44°33' E 037°38'0 0.9
2018-Feb-16 16:30N 44°33' E 037°38'2 4.8
2018-Feb-16 16:00N 44°31' E 037°37'1 2.6
2018-Feb-16 15:30N 44°30' E 037°36'0 0.9
2018-Feb-16 15:00N 44°31' E 037°36'0 0.8
2018-Feb-16 14:30N 44°31' E 037°36'0 0.8
2018-Feb-16 14:00N 44°31' E 037°37'0 0.8
2018-Feb-16 13:30N 44°32' E 037°37'0 0.8
2018-Feb-16 13:00N 44°32' E 037°37'0 0.6
2018-Feb-16 12:30N 44°32' E 037°37'0 0.7
2018-Feb-16 12:00N 44°33' E 037°38'2 4.3
2018-Feb-16 11:30N 44°34' E 037°40'3 5.0
2018-Feb-16 11:00N 44°35' E 037°43'0 0.3
2018-Feb-16 10:30N 44°35' E 037°43'0 0.8
2018-Feb-16 10:00N 44°35' E 037°43'0 0.7
2018-Feb-16 09:30N 44°35' E 037°43'1 1.1
2018-Feb-16 09:00N 44°35' E 037°42'0 0.8
2018-Feb-16 08:30N 44°36' E 037°43'0 1.0
2018-Feb-16 08:00N 44°36' E 037°43'0 0.8
2018-Feb-16 07:30N 44°37' E 037°43'0 0.8
2018-Feb-16 07:00N 44°37' E 037°43'1 2.0
2018-Feb-16 06:30N 44°37' E 037°42'1 1.1
2018-Feb-16 06:00N 44°37' E 037°43'1 2.1
2018-Feb-16 05:30N 44°36' E 037°43'3 6.3
2018-Feb-16 05:00N 44°33' E 037°41'4 7.3
2018-Feb-16 04:30N 44°30' E 037°37'4 7.9
2018-Feb-16 04:00N 44°27' E 037°35'4 7.5
2018-Feb-16 03:30N 44°24' E 037°32'1 1.0
2018-Feb-16 03:00N 44°23' E 037°31'0 0.4
2018-Feb-16 02:30N 44°23' E 037°31'0 0.6
2018-Feb-16 01:59N 44°23' E 037°31'1 1.1
2018-Feb-16 01:30N 44°23' E 037°30'1 2.2
2018-Feb-16 01:00N 44°23' E 037°28'3 6.4
2018-Feb-16 00:30N 44°22' E 037°24'5 9.7
2018-Feb-16 00:00N 44°20' E 037°18'417 9.8
2018-Feb-14 05:26N 41°01' E 028°60'4 9.7
2018-Feb-14 04:59N 40°57' E 028°59'4 8.4
2018-Feb-14 04:30N 40°53' E 028°57'611.1
2018-Feb-14 04:00N 40°48' E 028°53'1 1.6
2018-Feb-14 03:30N 40°49' E 028°53'1 1.1
2018-Feb-14 03:00N 40°49' E 028°53'1 2.0
2018-Feb-14 02:30N 40°50' E 028°54'0 0.8
2018-Feb-14 02:00N 40°50' E 028°53'0 0.7
2018-Feb-14 01:30N 40°50' E 028°53'0 0.5
2018-Feb-14 00:59N 40°50' E 028°54'2 3.9
2018-Feb-14 00:30N 40°48' E 028°54'2 3.2
2018-Feb-13 23:57N 40°47' E 028°55'0 0.2
2018-Feb-13 23:30N 40°47' E 028°55'0 0.1
2018-Feb-13 23:00N 40°47' E 028°55'0 0.1
2018-Feb-13 22:25N 40°47' E 028°55'0 0.0
2018-Feb-13 22:00N 40°47' E 028°55'0 0.1
2018-Feb-13 21:30N 40°47' E 028°55'0 0.2
2018-Feb-13 21:00N 40°47' E 028°55'0 0.2
2018-Feb-13 20:25N 40°47' E 028°55'0 0.1
2018-Feb-13 19:57N 40°47' E 028°55'0 0.1
2018-Feb-13 19:28N 40°47' E 028°55'0 0.0
2018-Feb-13 18:59N 40°47' E 028°55'0 0.1
2018-Feb-13 18:30N 40°47' E 028°55'0 0.3
2018-Feb-13 18:00N 40°47' E 028°55'0 0.4
2018-Feb-13 17:30N 40°47' E 028°55'0 0.5
2018-Feb-13 17:00N 40°48' E 028°55'0 0.5
2018-Feb-13 16:30N 40°48' E 028°55'0 0.7
2018-Feb-13 15:54N 40°48' E 028°56'0 0.6
2018-Feb-13 15:30N 40°48' E 028°56'0 0.3
2018-Feb-13 15:00N 40°48' E 028°56'2 3.8
2018-Feb-13 14:30N 40°47' E 028°54'2 3.5
2018-Feb-13 13:51N 40°45' E 028°53'0 0.2
2018-Feb-13 13:18N 40°45' E 028°53'0 0.2
2018-Feb-13 11:43N 40°45' E 028°53'0 0.4
2018-Feb-13 11:29N 40°45' E 028°53'0 0.4
2018-Feb-13 10:57N 40°46' E 028°53'0 0.4
2018-Feb-13 10:11N 40°46' E 028°54'0 0.4
2018-Feb-13 09:58N 40°46' E 028°54'0 0.3
2018-Feb-13 09:30N 40°46' E 028°54'0 0.4
2018-Feb-13 08:59N 40°46' E 028°54'0 0.4
2018-Feb-13 08:28N 40°46' E 028°54'0 0.5
2018-Feb-13 08:00N 40°47' E 028°54'0 0.6
2018-Feb-13 07:28N 40°47' E 028°54'0 0.6
2018-Feb-13 06:59N 40°47' E 028°54'0 0.7
2018-Feb-13 06:30N 40°48' E 028°55'0 0.8
2018-Feb-13 06:00N 40°48' E 028°55'0 0.8
2018-Feb-13 05:28N 40°48' E 028°55'0 0.9
2018-Feb-13 04:59N 40°49' E 028°55'0 0.8
2018-Feb-13 04:29N 40°49' E 028°55'0 0.8
2018-Feb-13 04:00N 40°49' E 028°56'0 0.9
2018-Feb-13 03:27N 40°50' E 028°56'0 1.0
2018-Feb-13 03:00N 40°50' E 028°55'1 2.9
2018-Feb-13 02:30N 40°49' E 028°54'0 0.5
2018-Feb-13 01:59N 40°49' E 028°54'0 0.9
2018-Feb-13 01:30N 40°49' E 028°54'1 1.0
2018-Feb-13 00:59N 40°50' E 028°55'0 0.3
2018-Feb-13 00:28N 40°50' E 028°54'1 2.4
2018-Feb-12 23:58N 40°49' E 028°54'0 0.6
2018-Feb-12 23:30N 40°49' E 028°54'0 0.5
2018-Feb-12 23:00N 40°49' E 028°54'0 0.4
2018-Feb-12 22:30N 40°49' E 028°55'0 0.4
2018-Feb-12 21:59N 40°49' E 028°55'0 0.2
2018-Feb-12 21:30N 40°49' E 028°55'  
Track history (hours):
 
Tides and Currents Weather Stations Pressure Air Temp Water Temp Dewpoint Dewpoint Depression Visibility Wind Speed Wind Dir Waves Ship Positions

Indigo Sun

Last reported at 2018-Feb-22 11:59 UTC. Time now 2018-Feb-25 12:12 UTC.
Position N 44°21' E 037°07'.

Length 249 m; draft 13.3 m.

Type: Ship (hazmat cat C). MMSI: 636018113.

Date/timePositionNaut miles runAvg speedWind from/ knotsBaromVisibWave heightAir tempDewpointWater temp
2018-Feb-22 11:59N 44°21' E 037°07'612.7
2018-Feb-22 11:29N 44°24' E 037°14'612.5
2018-Feb-22 10:59N 44°27' E 037°22'612.7
2018-Feb-22 10:30N 44°29' E 037°30'612.7
2018-Feb-22 10:00N 44°31' E 037°38'510.4
2018-Feb-22 09:30N 44°35' E 037°43'1 1.9
2018-Feb-22 09:00N 44°36' E 037°43'0 0.2
2018-Feb-22 08:30N 44°36' E 037°43'0 0.3
2018-Feb-22 08:00N 44°36' E 037°44'0 0.2
2018-Feb-22 07:30N 44°36' E 037°44'0 0.7
2018-Feb-22 07:00N 44°36' E 037°44'1 1.8
2018-Feb-22 06:30N 44°35' E 037°43'0 0.4
2018-Feb-22 06:00N 44°36' E 037°43'0 0.5
2018-Feb-22 05:30N 44°36' E 037°43'0 0.5
2018-Feb-22 05:00N 44°36' E 037°43'0 0.5
2018-Feb-22 04:30N 44°36' E 037°43'0 0.4
2018-Feb-22 04:00N 44°36' E 037°43'0 0.2
2018-Feb-22 03:30N 44°36' E 037°43'1 2.1
2018-Feb-22 03:00N 44°36' E 037°43'2 4.6
2018-Feb-22 02:30N 44°35' E 037°40'2 3.5
2018-Feb-22 02:00N 44°36' E 037°38'2 3.0
2018-Feb-22 01:30N 44°38' E 037°38'0 0.0
2018-Feb-21 07:56N 44°38' E 037°38'1 1.5
2018-Feb-21 07:31N 44°37' E 037°37'1 2.1
2018-Feb-21 07:00N 44°36' E 037°37'1 2.1
2018-Feb-21 06:31N 44°35' E 037°38'2 4.4
2018-Feb-21 06:01N 44°33' E 037°36'0 0.9
2018-Feb-21 05:31N 44°34' E 037°37'0 0.1
2018-Feb-21 05:01N 44°34' E 037°37'4 7.9
2018-Feb-21 04:30N 44°31' E 037°33'0 0.9
2018-Feb-21 04:00N 44°31' E 037°33'1 1.2
2018-Feb-21 03:31N 44°31' E 037°34'1 1.2
2018-Feb-21 03:00N 44°32' E 037°35'1 1.2
2018-Feb-21 02:31N 44°32' E 037°35'1 1.2
2018-Feb-21 02:00N 44°32' E 037°36'1 1.2
2018-Feb-21 01:30N 44°33' E 037°37'1 1.2
2018-Feb-21 01:01N 44°33' E 037°37'3 5.2
2018-Feb-21 00:30N 44°32' E 037°34'1 1.7
2018-Feb-21 00:01N 44°31' E 037°33'4 1.4
2018-Feb-20 21:22N 44°34' E 037°37'0 1.1
2018-Feb-20 21:00N 44°34' E 037°37'4 7.6
2018-Feb-20 20:31N 44°31' E 037°34'0 0.8
2018-Feb-20 20:01N 44°31' E 037°33'1 1.5
2018-Feb-20 19:30N 44°31' E 037°34'1 1.5
2018-Feb-20 19:01N 44°32' E 037°35'1 1.6
2018-Feb-20 18:30N 44°32' E 037°35'1 1.5
2018-Feb-20 18:01N 44°33' E 037°36'1 1.3
2018-Feb-20 17:31N 44°33' E 037°37'1 2.0
2018-Feb-20 17:00N 44°33' E 037°35'3 6.0
2018-Feb-20 16:31N 44°31' E 037°33'1 1.2
2018-Feb-20 16:01N 44°31' E 037°33'1 1.2
2018-Feb-20 15:30N 44°32' E 037°34'1 1.3
2018-Feb-20 15:00N 44°32' E 037°35'1 1.4
2018-Feb-20 14:31N 44°32' E 037°35'1 1.3
2018-Feb-20 14:00N 44°33' E 037°36'1 1.2
2018-Feb-20 13:30N 44°33' E 037°37'0 0.7
2018-Feb-20 13:01N 44°34' E 037°37'4 8.0
2018-Feb-20 12:31N 44°30' E 037°34'0 0.8
2018-Feb-20 12:00N 44°31' E 037°34'1 1.5
2018-Feb-20 11:31N 44°31' E 037°34'1 1.3
2018-Feb-20 11:00N 44°32' E 037°35'1 1.4
2018-Feb-20 10:30N 44°32' E 037°35'1 1.4
2018-Feb-20 10:00N 44°33' E 037°36'1 1.3
2018-Feb-20 09:30N 44°33' E 037°37'1 1.3
2018-Feb-20 09:00N 44°33' E 037°37'1 2.8
2018-Feb-20 08:30N 44°33' E 037°36'3 6.1
2018-Feb-20 08:00N 44°30' E 037°33'1 1.2
2018-Feb-20 07:30N 44°31' E 037°34'1 1.2
2018-Feb-20 07:00N 44°31' E 037°34'1 1.3
2018-Feb-20 06:30N 44°32' E 037°35'1 1.4
2018-Feb-20 06:00N 44°32' E 037°35'1 1.4
2018-Feb-20 05:30N 44°33' E 037°36'0 0.1
2018-Feb-20 05:00N 44°33' E 037°36'4 7.3
2018-Feb-20 04:30N 44°29' E 037°34'1 1.3
2018-Feb-20 04:00N 44°30' E 037°34'1 1.2
2018-Feb-20 03:30N 44°31' E 037°35'1 1.2
2018-Feb-20 03:00N 44°31' E 037°35'1 1.2
2018-Feb-20 02:30N 44°31' E 037°36'1 1.2
2018-Feb-20 02:00N 44°32' E 037°36'1 1.1
2018-Feb-20 01:30N 44°32' E 037°37'0 1.0
2018-Feb-20 01:00N 44°33' E 037°37'0 0.8
2018-Feb-20 00:30N 44°33' E 037°37'0 0.6
2018-Feb-20 00:00N 44°33' E 037°37'3 6.6
2018-Feb-19 23:30N 44°30' E 037°35'0 0.9
2018-Feb-19 23:00N 44°30' E 037°35'0 0.5
2018-Feb-19 22:30N 44°30' E 037°35'0 0.4
2018-Feb-19 22:00N 44°30' E 037°35'0 0.4
2018-Feb-19 21:30N 44°30' E 037°35'0 0.4
2018-Feb-19 21:00N 44°31' E 037°35'0 0.4
2018-Feb-19 20:30N 44°31' E 037°35'1936.3
2018-Feb-19 19:59N 44°36' E 038°01'0 0.0
2018-Feb-19 19:30N 44°36' E 038°01'0 0.0
2018-Feb-19 19:01N 44°36' E 038°01'1937.4
2018-Feb-19 18:31N 44°31' E 037°35'0 0.6
2018-Feb-19 18:00N 44°31' E 037°35'0 0.3
2018-Feb-19 17:30N 44°32' E 037°35'0 0.6
2018-Feb-19 17:00N 44°31' E 037°36'0 0.5
2018-Feb-19 16:31N 44°32' E 037°36'0 0.8
2018-Feb-19 16:00N 44°32' E 037°36'0 0.5
2018-Feb-19 15:30N 44°32' E 037°36'0 0.5
2018-Feb-19 15:00N 44°32' E 037°36'0 0.5
2018-Feb-19 14:30N 44°33' E 037°36'0 0.9
2018-Feb-19 14:01N 44°33' E 037°36'4 7.1
2018-Feb-19 13:30N 44°29' E 037°35'0 0.5
2018-Feb-19 13:00N 44°30' E 037°35'0 0.5
2018-Feb-19 12:30N 44°30' E 037°35'0 0.6
2018-Feb-19 12:01N 44°30' E 037°35'1939.0
2018-Feb-19 11:31N 44°36' E 038°01'0 0.0
2018-Feb-19 11:01N 44°36' E 038°01'1938.1
2018-Feb-19 10:31N 44°31' E 037°35'0 0.6
2018-Feb-19 10:00N 44°31' E 037°35'0 0.7
2018-Feb-19 09:30N 44°32' E 037°35'0 0.8
2018-Feb-19 09:00N 44°32' E 037°36'0 0.8
2018-Feb-19 08:31N 44°32' E 037°36'0 0.8
2018-Feb-19 08:00N 44°33' E 037°36'0 0.7
2018-Feb-19 07:30N 44°33' E 037°37'0 0.7
2018-Feb-19 07:00N 44°33' E 037°37'0 0.6
2018-Feb-19 06:30N 44°33' E 037°37'0 0.5
2018-Feb-19 06:01N 44°34' E 037°37'1 2.0
2018-Feb-19 05:31N 44°33' E 037°36'3 5.6
2018-Feb-19 05:00N 44°30' E 037°35'0 1.0
2018-Feb-19 04:31N 44°30' E 037°35'0 0.9
2018-Feb-19 04:01N 44°30' E 037°35'0 0.8
2018-Feb-19 03:31N 44°31' E 037°35'0 0.8
2018-Feb-19 02:59N 44°31' E 037°35'0 0.8
2018-Feb-19 02:30N 44°31' E 037°35'0 0.8
2018-Feb-19 01:59N 44°32' E 037°36'0 0.8
2018-Feb-19 01:30N 44°32' E 037°36'0 0.6
2018-Feb-19 01:01N 44°32' E 037°36'0 0.4
2018-Feb-19 00:30N 44°33' E 037°36'0 0.4
2018-Feb-19 00:01N 44°33' E 037°36'0 0.4
2018-Feb-18 23:31N 44°33' E 037°36'0 0.2
2018-Feb-18 23:01N 44°33' E 037°37'0 0.3
2018-Feb-18 22:31N 44°33' E 037°36'1834.2
2018-Feb-18 21:59N 44°36' E 038°01'0 0.0
2018-Feb-18 21:31N 44°36' E 038°01'0 0.0
2018-Feb-18 21:01N 44°36' E 038°01'2039.7
2018-Feb-18 20:30N 44°31' E 037°33'1 1.4
2018-Feb-18 20:00N 44°31' E 037°34'1 1.6
2018-Feb-18 19:30N 44°32' E 037°35'1 1.5
2018-Feb-18 19:00N 44°32' E 037°36'1 1.4
2018-Feb-18 18:31N 44°33' E 037°37'1 1.3
2018-Feb-18 18:00N 44°33' E 037°37'1 1.8
2018-Feb-18 17:30N 44°33' E 037°38'2 4.5
2018-Feb-18 17:00N 44°30' E 037°39'1 2.3
2018-Feb-18 16:30N 44°30' E 037°37'1 1.0
2018-Feb-18 16:01N 44°30' E 037°37'1 1.0
2018-Feb-18 15:30N 44°31' E 037°37'1 1.0
2018-Feb-18 15:00N 44°31' E 037°37'1 1.0
2018-Feb-18 14:30N 44°32' E 037°37'0 1.0
2018-Feb-18 14:00N 44°32' E 037°37'0 0.8
2018-Feb-18 13:30N 44°33' E 037°37'0 0.7
2018-Feb-18 13:00N 44°33' E 037°37'0 0.6
2018-Feb-18 12:30N 44°33' E 037°36'1 1.3
2018-Feb-18 12:01N 44°33' E 037°36'2 4.7
2018-Feb-18 11:30N 44°31' E 037°34'1 1.1
2018-Feb-18 11:00N 44°30' E 037°34'1 1.5
2018-Feb-18 10:30N 44°31' E 037°35'1 1.5
2018-Feb-18 10:00N 44°31' E 037°35'1 1.6
2018-Feb-18 09:30N 44°32' E 037°36'1 1.7
2018-Feb-18 09:00N 44°33' E 037°36'1 1.5
2018-Feb-18 08:30N 44°34' E 037°37'0 0.6
2018-Feb-18 08:00N 44°33' E 037°37'2 4.2
2018-Feb-18 07:30N 44°32' E 037°35'3 5.1
2018-Feb-18 07:00N 44°29' E 037°34'1 1.5
2018-Feb-18 06:30N 44°30' E 037°35'1 1.6
2018-Feb-18 06:00N 44°31' E 037°35'1 1.8
2018-Feb-18 05:30N 44°31' E 037°36'1 2.1
2018-Feb-18 05:00N 44°32' E 037°37'2 3.2
2018-Feb-18 04:30N 44°31' E 037°39'1 2.4
2018-Feb-18 04:00N 44°30' E 037°40'1 1.6
2018-Feb-18 03:30N 44°31' E 037°39'1 1.7
2018-Feb-18 03:00N 44°32' E 037°39'1 1.7
2018-Feb-18 02:30N 44°32' E 037°38'1 1.3
2018-Feb-18 02:00N 44°33' E 037°37'2 3.5
2018-Feb-18 01:30N 44°32' E 037°36'2 4.9
2018-Feb-18 01:00N 44°29' E 037°35'1 1.0
2018-Feb-18 00:30N 44°29' E 037°36'1 1.5
2018-Feb-18 00:00N 44°30' E 037°36'1 1.7
2018-Feb-17 23:30N 44°31' E 037°36'1 1.6
2018-Feb-17 23:00N 44°32' E 037°37'1 1.7
2018-Feb-17 22:30N 44°32' E 037°37'1 1.9
2018-Feb-17 22:00N 44°32' E 037°39'1632.7
2018-Feb-17 21:30N 44°36' E 038°01'1632.3
2018-Feb-17 21:00N 44°31' E 037°40'1 1.5
2018-Feb-17 20:30N 44°32' E 037°39'0 1.0
2018-Feb-17 20:00N 44°32' E 037°39'0 1.0
2018-Feb-17 19:30N 44°33' E 037°39'1 1.2
2018-Feb-17 19:00N 44°33' E 037°39'2 3.2
2018-Feb-17 18:30N 44°32' E 037°38'3 5.0
2018-Feb-17 18:00N 44°29' E 037°37'1 1.1
2018-Feb-17 17:30N 44°30' E 037°37'0 0.7
2018-Feb-17 17:00N 44°30' E 037°37'0 0.5
2018-Feb-17 16:30N 44°31' E 037°37'0 0.5
2018-Feb-17 16:00N 44°31' E 037°37'0 0.5
2018-Feb-17 15:30N 44°31' E 037°37'0 0.5
2018-Feb-17 15:00N 44°31' E 037°37'0 0.5
2018-Feb-17 14:30N 44°32' E 037°37'0 0.5
2018-Feb-17 14:00N 44°32' E 037°37'0 0.5
2018-Feb-17 13:30N 44°32' E 037°37'0 0.5
2018-Feb-17 13:00N 44°32' E 037°37'0 0.5
2018-Feb-17 12:30N 44°32' E 037°37'0 0.9
2018-Feb-17 12:00N 44°33' E 037°38'1 1.7
2018-Feb-17 11:30N 44°33' E 037°38'2 3.2
2018-Feb-17 11:00N 44°34' E 037°40'3 6.9
2018-Feb-17 10:30N 44°36' E 037°44'0 0.6
2018-Feb-17 10:00N 44°36' E 037°44'0 0.6
2018-Feb-17 09:30N 44°37' E 037°43'0 0.8
2018-Feb-17 09:00N 44°36' E 037°43'3 6.1
2018-Feb-17 08:30N 44°34' E 037°41'3 6.8
2018-Feb-17 08:00N 44°30' E 037°40'1 1.1
2018-Feb-17 07:30N 44°31' E 037°40'1 1.0
2018-Feb-17 07:00N 44°31' E 037°39'1 1.1
2018-Feb-17 06:30N 44°32' E 037°39'0 0.9
2018-Feb-17 06:00N 44°32' E 037°39'0 0.9
2018-Feb-17 05:30N 44°33' E 037°39'0 0.8
2018-Feb-17 05:00N 44°33' E 037°39'1 1.9
2018-Feb-17 04:30N 44°33' E 037°37'3 6.2
2018-Feb-17 04:00N 44°31' E 037°34'0 0.9
2018-Feb-17 03:30N 44°30' E 037°34'0 0.4
2018-Feb-17 03:00N 44°30' E 037°34'0 0.4
2018-Feb-17 02:30N 44°30' E 037°35'0 0.4
2018-Feb-17 02:00N 44°30' E 037°35'0 0.5
2018-Feb-17 01:30N 44°31' E 037°35'0 0.6
2018-Feb-17 01:00N 44°31' E 037°36'0 0.7
2018-Feb-17 00:30N 44°31' E 037°36'0 0.8
2018-Feb-17 00:00N 44°31' E 037°36'0 0.8
2018-Feb-16 23:30N 44°32' E 037°37'0 0.8
2018-Feb-16 23:00N 44°32' E 037°37'0 0.9
2018-Feb-16 22:30N 44°32' E 037°37'1 1.1
2018-Feb-16 22:00N 44°33' E 037°38'1 1.1
2018-Feb-16 21:30N 44°33' E 037°38'3 5.9
2018-Feb-16 21:00N 44°30' E 037°36'1 1.9
2018-Feb-16 20:30N 44°30' E 037°36'1 1.1
2018-Feb-16 20:00N 44°30' E 037°36'1 1.1
2018-Feb-16 19:30N 44°31' E 037°37'1 1.1
2018-Feb-16 19:00N 44°31' E 037°37'1 1.1
2018-Feb-16 18:30N 44°32' E 037°37'1 1.1
2018-Feb-16 18:00N 44°32' E 037°38'1 1.0
2018-Feb-16 17:30N 44°33' E 037°38'1 1.0
2018-Feb-16 17:00N 44°33' E 037°38'0 0.9
2018-Feb-16 16:30N 44°33' E 037°38'2 4.8
2018-Feb-16 16:00N 44°31' E 037°37'1 2.6
2018-Feb-16 15:30N 44°30' E 037°36'0 0.9
2018-Feb-16 15:00N 44°31' E 037°36'0 0.8
2018-Feb-16 14:30N 44°31' E 037°36'0 0.8
2018-Feb-16 14:00N 44°31' E 037°37'0 0.8
2018-Feb-16 13:30N 44°32' E 037°37'0 0.8
2018-Feb-16 13:00N 44°32' E 037°37'0 0.6
2018-Feb-16 12:30N 44°32' E 037°37'0 0.7
2018-Feb-16 12:00N 44°33' E 037°38'2 4.3
2018-Feb-16 11:30N 44°34' E 037°40'3 5.0
2018-Feb-16 11:00N 44°35' E 037°43'0 0.3
2018-Feb-16 10:30N 44°35' E 037°43'0 0.8
2018-Feb-16 10:00N 44°35' E 037°43'0 0.7
2018-Feb-16 09:30N 44°35' E 037°43'1 1.1
2018-Feb-16 09:00N 44°35' E 037°42'0 0.8
2018-Feb-16 08:30N 44°36' E 037°43'0 1.0
2018-Feb-16 08:00N 44°36' E 037°43'0 0.8
2018-Feb-16 07:30N 44°37' E 037°43'0 0.8
2018-Feb-16 07:00N 44°37' E 037°43'1 2.0
2018-Feb-16 06:30N 44°37' E 037°42'1 1.1
2018-Feb-16 06:00N 44°37' E 037°43'1 2.1
2018-Feb-16 05:30N 44°36' E 037°43'3 6.3
2018-Feb-16 05:00N 44°33' E 037°41'4 7.3
2018-Feb-16 04:30N 44°30' E 037°37'4 7.9
2018-Feb-16 04:00N 44°27' E 037°35'4 7.5
2018-Feb-16 03:30N 44°24' E 037°32'1 1.0
2018-Feb-16 03:00N 44°23' E 037°31'0 0.4
2018-Feb-16 02:30N 44°23' E 037°31'0 0.6
2018-Feb-16 01:59N 44°23' E 037°31'1 1.1
2018-Feb-16 01:30N 44°23' E 037°30'1 2.2
2018-Feb-16 01:00N 44°23' E 037°28'3 6.4
2018-Feb-16 00:30N 44°22' E 037°24'5 9.7
2018-Feb-16 00:00N 44°20' E 037°18'417 9.8
2018-Feb-14 05:26N 41°01' E 028°60'4 9.7
2018-Feb-14 04:59N 40°57' E 028°59'4 8.4
2018-Feb-14 04:30N 40°53' E 028°57'611.1
2018-Feb-14 04:00N 40°48' E 028°53'1 1.6
2018-Feb-14 03:30N 40°49' E 028°53'1 1.1
2018-Feb-14 03:00N 40°49' E 028°53'1 2.0
2018-Feb-14 02:30N 40°50' E 028°54'0 0.8
2018-Feb-14 02:00N 40°50' E 028°53'0 0.7
2018-Feb-14 01:30N 40°50' E 028°53'0 0.5
2018-Feb-14 00:59N 40°50' E 028°54'2 3.9
2018-Feb-14 00:30N 40°48' E 028°54'2 3.2
2018-Feb-13 23:57N 40°47' E 028°55'0 0.2
2018-Feb-13 23:30N 40°47' E 028°55'0 0.1
2018-Feb-13 23:00N 40°47' E 028°55'0 0.1
2018-Feb-13 22:25N 40°47' E 028°55'0 0.0
2018-Feb-13 22:00N 40°47' E 028°55'0 0.1
2018-Feb-13 21:30N 40°47' E 028°55'0 0.2
2018-Feb-13 21:00N 40°47' E 028°55'0 0.2
2018-Feb-13 20:25N 40°47' E 028°55'0 0.1
2018-Feb-13 19:57N 40°47' E 028°55'0 0.1
2018-Feb-13 19:28N 40°47' E 028°55'0 0.0
2018-Feb-13 18:59N 40°47' E 028°55'0 0.1
2018-Feb-13 18:30N 40°47' E 028°55'0 0.3
2018-Feb-13 18:00N 40°47' E 028°55'0 0.4
2018-Feb-13 17:30N 40°47' E 028°55'0 0.5
2018-Feb-13 17:00N 40°48' E 028°55'0 0.5
2018-Feb-13 16:30N 40°48' E 028°55'0 0.7
2018-Feb-13 15:54N 40°48' E 028°56'0 0.6
2018-Feb-13 15:30N 40°48' E 028°56'0 0.3
2018-Feb-13 15:00N 40°48' E 028°56'2 3.8
2018-Feb-13 14:30N 40°47' E 028°54'2 3.5
2018-Feb-13 13:51N 40°45' E 028°53'0 0.2
2018-Feb-13 13:18N 40°45' E 028°53'0 0.2
2018-Feb-13 11:43N 40°45' E 028°53'0 0.4
2018-Feb-13 11:29N 40°45' E 028°53'0 0.4
2018-Feb-13 10:57N 40°46' E 028°53'0 0.4
2018-Feb-13 10:11N 40°46' E 028°54'0 0.4
2018-Feb-13 09:58N 40°46' E 028°54'0 0.3
2018-Feb-13 09:30N 40°46' E 028°54'0 0.4
2018-Feb-13 08:59N 40°46' E 028°54'0 0.4
2018-Feb-13 08:28N 40°46' E 028°54'0 0.5
2018-Feb-13 08:00N 40°47' E 028°54'0 0.6
2018-Feb-13 07:28N 40°47' E 028°54'0 0.6
2018-Feb-13 06:59N 40°47' E 028°54'0 0.7
2018-Feb-13 06:30N 40°48' E 028°55'0 0.8
2018-Feb-13 06:00N 40°48' E 028°55'0 0.8
2018-Feb-13 05:28N 40°48' E 028°55'0 0.9
2018-Feb-13 04:59N 40°49' E 028°55'0 0.8
2018-Feb-13 04:29N 40°49' E 028°55'0 0.8
2018-Feb-13 04:00N 40°49' E 028°56'0 0.9
2018-Feb-13 03:27N 40°50' E 028°56'0 1.0
2018-Feb-13 03:00N 40°50' E 028°55'1 2.9
2018-Feb-13 02:30N 40°49' E 028°54'0 0.5
2018-Feb-13 01:59N 40°49' E 028°54'0 0.9
2018-Feb-13 01:30N 40°49' E 028°54'1 1.0
2018-Feb-13 00:59N 40°50' E 028°55'0 0.3
2018-Feb-13 00:28N 40°50' E 028°54'1 2.4
2018-Feb-12 23:58N 40°49' E 028°54'0 0.6
2018-Feb-12 23:30N 40°49' E 028°54'0 0.5
2018-Feb-12 23:00N 40°49' E 028°54'0 0.4
2018-Feb-12 22:30N 40°49' E 028°55'0 0.4
2018-Feb-12 21:59N 40°49' E 028°55'0 0.2
2018-Feb-12 21:30N 40°49' E 028°55'  

Dump ship's entire track history